createdAt,value
2019-02-25T00:02:52.346Z,13.58
2019-02-25T00:09:15.905Z,13.50
2019-02-25T00:11:45.005Z,12.98
2019-02-25T00:14:13.944Z,12.68
2019-02-25T00:16:43.336Z,12.70
2019-02-25T00:19:12.110Z,12.63
2019-02-25T00:21:41.229Z,12.20
2019-02-25T00:24:10.115Z,12.98
2019-02-25T00:26:38.924Z,13.32
2019-02-25T00:29:07.743Z,13.53
2019-02-25T00:31:36.594Z,12.85
2019-02-25T00:34:05.466Z,12.88
2019-02-25T00:36:34.346Z,13.25
2019-02-25T00:39:04.279Z,13.32
2019-02-25T00:41:33.315Z,12.75
2019-02-25T00:44:02.222Z,12.55
2019-02-25T00:46:31.523Z,11.70
2019-02-25T00:49:00.387Z,12.30
2019-02-25T00:51:29.305Z,12.37
2019-02-25T00:53:58.114Z,12.93
2019-02-25T00:56:27.147Z,12.95
2019-02-25T00:58:56.039Z,14.20
2019-02-25T01:01:25.143Z,13.40
2019-02-25T01:03:54.565Z,13.80
2019-02-25T01:06:23.446Z,13.20
2019-02-25T01:08:52.347Z,13.80
2019-02-25T01:11:21.666Z,13.20
2019-02-25T01:13:50.563Z,13.00
2019-02-25T01:16:19.738Z,13.30
2019-02-25T01:18:48.579Z,12.87
2019-02-25T01:21:17.478Z,13.28
2019-02-25T01:23:46.296Z,12.85
2019-02-25T01:26:15.081Z,12.85
2019-02-25T01:28:44.194Z,12.85
2019-02-25T01:31:13.269Z,12.53
2019-02-25T01:33:42.150Z,13.00
2019-02-25T01:36:10.927Z,13.43
2019-02-25T01:38:39.860Z,12.80
2019-02-25T01:41:08.787Z,13.30
2019-02-25T01:43:37.669Z,12.98
2019-02-25T01:46:06.631Z,11.55
2019-02-25T01:48:35.618Z,12.35
2019-02-25T01:51:04.421Z,12.40
2019-02-25T01:53:33.515Z,11.28
2019-02-25T01:56:02.322Z,11.48
2019-02-25T01:58:31.503Z,11.18
2019-02-25T02:01:00.310Z,10.93
2019-02-25T02:03:29.202Z,10.15
2019-02-25T02:05:58.274Z,11.03
2019-02-25T02:08:27.087Z,11.05
2019-02-25T02:10:55.955Z,11.12
2019-02-25T02:13:24.863Z,11.00
2019-02-25T02:15:53.704Z,10.30
2019-02-25T02:18:22.774Z,10.08
2019-02-25T02:20:51.642Z,10.23
2019-02-25T02:23:20.747Z,10.40
2019-02-25T02:25:49.546Z,10.68
2019-02-25T02:28:18.410Z,9.75
2019-02-25T02:30:47.686Z,10.40
2019-02-25T02:33:16.567Z,10.20
2019-02-25T02:35:45.430Z,9.78
2019-02-25T02:38:14.822Z,9.20
2019-02-25T02:40:43.683Z,9.25
2019-02-25T02:43:13.894Z,8.90
2019-02-25T02:45:49.974Z,9.43
2019-02-25T02:48:35.536Z,9.15
2019-02-25T02:51:04.419Z,9.45
2019-02-25T02:53:33.224Z,9.30
2019-02-25T02:56:02.192Z,9.30
2019-02-25T02:58:31.278Z,9.33
2019-02-25T03:01:00.510Z,8.58
2019-02-25T03:03:29.446Z,8.83
2019-02-25T03:05:58.322Z,8.68
2019-02-25T03:08:27.472Z,9.45
2019-02-25T03:10:56.738Z,9.53
2019-02-25T03:13:25.623Z,9.83
2019-02-25T03:15:54.654Z,9.83
2019-02-25T03:18:23.503Z,9.50
2019-02-25T03:20:52.294Z,9.48
2019-02-25T03:23:21.445Z,9.98
2019-02-25T03:25:50.219Z,10.08
2019-02-25T03:28:19.028Z,9.75
2019-02-25T03:30:47.816Z,10.03
2019-02-25T03:33:16.680Z,9.90
2019-02-25T03:35:45.559Z,10.30
2019-02-25T03:38:14.375Z,10.35
2019-02-25T03:40:43.158Z,10.00
2019-02-25T03:43:12.034Z,10.50
2019-02-25T03:45:41.951Z,10.05
2019-02-25T03:48:10.816Z,10.25
2019-02-25T03:50:39.668Z,10.20
2019-02-25T03:53:08.547Z,10.30
2019-02-25T03:55:37.486Z,10.80
2019-02-25T03:58:06.487Z,10.35
2019-02-25T04:00:35.547Z,10.90
2019-02-25T04:03:04.525Z,10.65
2019-02-25T04:05:33.704Z,14.45
2019-02-25T04:08:02.760Z,11.65
2019-02-25T04:10:31.674Z,10.25
2019-02-25T04:13:00.743Z,10.28
2019-02-25T04:15:36.678Z,9.40
2019-02-25T04:18:09.198Z,10.03
2019-02-25T04:20:38.742Z,10.38
2019-02-25T04:23:07.532Z,9.85
2019-02-25T04:25:36.416Z,10.32
2019-02-25T04:28:05.223Z,10.18
2019-02-25T04:30:34.009Z,10.13
2019-02-25T04:33:02.899Z,10.35
2019-02-25T04:35:31.774Z,9.93
2019-02-25T04:38:02.914Z,9.90
2019-02-25T04:40:31.486Z,10.15
2019-02-25T04:43:02.527Z,10.73
2019-02-25T04:45:32.342Z,9.70
2019-02-25T04:48:01.223Z,10.00
2019-02-25T04:50:30.243Z,10.43
2019-02-25T04:52:59.134Z,10.00
2019-02-25T04:55:27.978Z,9.50
2019-02-25T04:57:57.131Z,9.90
2019-02-25T05:00:26.067Z,9.85
2019-02-25T05:02:54.905Z,9.50
2019-02-25T05:05:23.976Z,9.80
2019-02-25T05:07:52.926Z,9.60
2019-02-25T05:10:21.943Z,9.65
2019-02-25T05:12:59.216Z,10.05
2019-02-25T05:15:28.860Z,9.50
2019-02-25T05:17:57.833Z,10.03
2019-02-25T05:20:26.860Z,9.85
2019-02-25T05:22:55.897Z,10.00
2019-02-25T05:25:24.866Z,10.45
2019-02-25T05:27:53.776Z,9.85
2019-02-25T05:30:22.801Z,9.75
2019-02-25T05:32:51.760Z,9.90
2019-02-25T05:35:20.978Z,10.88
2019-02-25T05:37:49.871Z,10.72
2019-02-25T05:40:19.084Z,10.40
2019-02-25T05:42:48.024Z,10.48
2019-02-25T05:45:17.044Z,10.55
2019-02-25T05:47:46.292Z,10.93
2019-02-25T05:50:15.316Z,10.60
2019-02-25T05:52:44.528Z,10.75
2019-02-25T05:55:14.091Z,10.20
2019-02-25T05:57:43.040Z,10.78
2019-02-25T06:00:16.931Z,11.12
2019-02-25T06:02:45.966Z,10.60
2019-02-25T06:05:15.060Z,11.93
2019-02-25T06:07:44.071Z,11.50
2019-02-25T06:10:13.438Z,11.07
2019-02-25T06:12:42.671Z,11.88
2019-02-25T06:15:14.590Z,12.35
2019-02-25T06:17:43.836Z,13.43
2019-02-25T06:20:14.196Z,13.53
2019-02-25T06:22:43.204Z,15.05
2019-02-25T06:25:12.542Z,13.93
2019-02-25T06:27:41.657Z,12.60
2019-02-25T06:30:13.448Z,12.58
2019-02-25T06:32:42.359Z,13.25
2019-02-25T06:35:11.497Z,13.43
2019-02-25T06:37:40.481Z,13.80
2019-02-25T06:40:11.111Z,14.03
2019-02-25T06:42:40.180Z,13.03
2019-02-25T06:45:11.128Z,12.65
2019-02-25T06:47:40.454Z,12.10
2019-02-25T06:50:09.666Z,12.13
2019-02-25T06:52:38.754Z,12.80
2019-02-25T06:55:09.253Z,12.63
2019-02-25T06:57:38.205Z,13.00
2019-02-25T07:00:11.126Z,13.62
2019-02-25T07:02:40.429Z,12.80
2019-02-25T07:05:18.352Z,13.17
2019-02-25T07:07:59.097Z,12.40
2019-02-25T07:10:45.113Z,11.73
2019-02-25T07:13:18.833Z,11.80
2019-02-25T07:16:05.645Z,12.93
2019-02-25T07:18:41.854Z,13.08
2019-02-25T07:21:39.297Z,12.93
2019-02-25T07:24:27.188Z,13.13
2019-02-25T07:27:03.508Z,13.03
2019-02-25T07:29:54.564Z,12.28
2019-02-25T07:32:51.413Z,12.25
2019-02-25T07:35:38.485Z,12.23
2019-02-25T07:38:26.811Z,12.03
2019-02-25T07:41:23.661Z,12.10
2019-02-25T07:44:14.617Z,11.57
2019-02-25T07:47:01.824Z,11.53
2019-02-25T07:49:46.751Z,11.12
2019-02-25T07:52:26.083Z,11.48
2019-02-25T07:55:11.119Z,11.28
2019-02-25T07:57:58.896Z,10.90
2019-02-25T08:00:38.386Z,10.98
2019-02-25T08:03:29.239Z,11.03
2019-02-25T08:06:17.164Z,10.85
2019-02-25T08:08:59.316Z,10.63
2019-02-25T08:11:47.331Z,10.35
2019-02-25T08:14:38.725Z,9.85
2019-02-25T08:17:21.081Z,10.18
2019-02-25T08:20:13.803Z,10.43
2019-02-25T08:23:01.837Z,10.58
2019-02-25T08:25:48.647Z,10.63
2019-02-25T08:28:27.913Z,10.68
2019-02-25T08:31:27.773Z,10.55
2019-02-25T08:34:18.393Z,10.93
2019-02-25T08:37:29.476Z,10.82
2019-02-25T08:40:29.437Z,10.93
2019-02-25T08:43:18.831Z,10.82
2019-02-25T08:45:59.109Z,11.35
2019-02-25T08:48:49.906Z,11.53
2019-02-25T08:51:19.036Z,11.73
2019-02-25T08:53:47.984Z,11.38
2019-02-25T08:56:18.076Z,11.18
2019-02-25T08:58:47.957Z,11.00
2019-02-25T09:01:16.977Z,10.82
2019-02-25T09:03:46.030Z,10.88
2019-02-25T09:06:15.056Z,10.68
2019-02-25T09:08:44.196Z,10.70
2019-02-25T09:11:14.388Z,10.78
2019-02-25T09:13:43.666Z,9.93
2019-02-25T09:16:12.747Z,9.43
2019-02-25T09:18:41.677Z,9.60
2019-02-25T09:21:10.664Z,9.20
2019-02-25T09:23:39.584Z,9.33
2019-02-25T09:26:08.581Z,8.70
2019-02-25T09:28:37.540Z,8.70
2019-02-25T09:31:06.589Z,8.35
2019-02-25T09:33:35.540Z,8.40
2019-02-25T09:36:04.507Z,7.70
2019-02-25T09:38:33.430Z,7.40
2019-02-25T09:41:02.721Z,7.45
2019-02-25T09:43:31.644Z,7.78
2019-02-25T09:46:00.580Z,7.47
2019-02-25T09:48:29.447Z,7.72
2019-02-25T09:50:58.584Z,7.30
2019-02-25T09:53:27.536Z,7.67
2019-02-25T09:55:56.773Z,7.53
2019-02-25T09:58:25.736Z,8.00
2019-02-25T10:00:54.900Z,7.75
2019-02-25T10:03:23.881Z,7.55
2019-02-25T10:05:52.923Z,6.97
2019-02-25T10:08:21.912Z,6.83
2019-02-25T10:10:50.827Z,5.90
2019-02-25T10:13:19.793Z,5.60
2019-02-25T10:15:48.754Z,5.40
2019-02-25T10:18:17.980Z,5.55
2019-02-25T10:20:47.036Z,4.90
2019-02-25T10:23:15.996Z,4.35
2019-02-25T10:25:44.879Z,4.30
2019-02-25T10:28:13.816Z,4.45
2019-02-25T10:30:42.864Z,4.30
2019-02-25T10:33:11.724Z,3.83
2019-02-25T10:35:40.612Z,3.70
2019-02-25T10:38:09.569Z,4.20
2019-02-25T10:40:38.504Z,3.90
2019-02-25T10:43:07.544Z,4.10
2019-02-25T10:45:37.208Z,4.30
2019-02-25T10:48:07.157Z,4.60
2019-02-25T10:50:38.448Z,4.20
2019-02-25T10:53:07.068Z,4.80
2019-02-25T10:55:44.357Z,4.60
2019-02-25T10:58:10.946Z,4.92
2019-02-25T11:00:41.594Z,4.80
2019-02-25T11:03:12.835Z,5.00
2019-02-25T11:05:41.544Z,4.90
2019-02-25T11:08:13.895Z,4.40
2019-02-25T11:11:02.163Z,4.87
2019-02-25T11:13:31.889Z,4.50
2019-02-25T11:16:01.937Z,4.20
2019-02-25T11:18:30.953Z,4.50
2019-02-25T11:21:01.283Z,4.20
2019-02-25T11:23:30.589Z,4.12
2019-02-25T11:26:00.471Z,4.53
2019-02-25T11:28:31.852Z,4.50
2019-02-25T11:31:01.114Z,4.47
2019-02-25T11:33:32.028Z,4.45
2019-02-25T11:36:00.722Z,4.42
2019-02-25T11:38:30.568Z,4.20
2019-02-25T11:41:02.022Z,4.23
2019-02-25T11:43:31.376Z,4.20
2019-02-25T11:46:00.444Z,4.28
2019-02-25T11:48:29.471Z,4.20
2019-02-25T11:50:58.401Z,3.90
2019-02-25T11:53:27.956Z,4.00
2019-02-25T11:55:57.168Z,3.80
2019-02-25T11:58:26.095Z,3.70
2019-02-25T12:00:55.094Z,3.92
2019-02-25T12:03:23.993Z,3.92
2019-02-25T12:05:53.547Z,4.28
2019-02-25T12:08:22.388Z,4.22
2019-02-25T12:10:51.386Z,3.98
2019-02-25T12:13:20.354Z,3.95
2019-02-25T12:15:49.289Z,4.30
2019-02-25T12:18:18.208Z,3.90
2019-02-25T12:20:47.120Z,4.08
2019-02-25T12:23:16.284Z,3.47
2019-02-25T12:25:45.292Z,3.80
2019-02-25T12:28:14.257Z,3.40
2019-02-25T12:30:43.493Z,3.70
2019-02-25T12:33:12.408Z,3.50
2019-02-25T12:35:41.348Z,3.87
2019-02-25T12:38:10.535Z,3.55
2019-02-25T12:40:39.727Z,3.70
2019-02-25T12:43:08.699Z,3.77
2019-02-25T12:45:37.628Z,3.60
2019-02-25T12:48:06.607Z,3.50
2019-02-25T12:50:35.929Z,3.60
2019-02-25T12:53:04.856Z,3.90
2019-02-25T12:55:34.100Z,3.60
2019-02-25T12:58:03.322Z,3.40
2019-02-25T13:00:32.376Z,3.60
2019-02-25T13:03:01.388Z,3.45
2019-02-25T13:05:30.686Z,3.60
2019-02-25T13:07:59.937Z,3.60
2019-02-25T13:10:28.959Z,3.67
2019-02-25T13:12:57.989Z,3.65
2019-02-25T13:15:27.004Z,3.70
2019-02-25T13:17:56.130Z,3.70
2019-02-25T13:20:25.119Z,4.00
2019-02-25T13:22:54.028Z,4.00
2019-02-25T13:25:23.000Z,3.83
2019-02-25T13:27:54.145Z,3.90
2019-02-25T13:30:22.740Z,3.95
2019-02-25T13:32:51.745Z,4.00
2019-02-25T13:35:20.663Z,3.90
2019-02-25T13:37:49.694Z,3.80
2019-02-25T13:40:18.902Z,3.97
2019-02-25T13:42:47.939Z,3.80
2019-02-25T13:45:17.072Z,4.20
2019-02-25T13:47:46.053Z,3.98
2019-02-25T13:50:15.777Z,4.30
2019-02-25T13:52:48.214Z,3.95
2019-02-25T13:55:15.573Z,4.03
2019-02-25T13:57:45.083Z,4.10
2019-02-25T14:00:17.068Z,4.22
2019-02-25T14:02:46.892Z,3.90
2019-02-25T14:05:15.905Z,4.35
2019-02-25T14:07:46.236Z,4.20
2019-02-25T14:10:15.316Z,4.00
2019-02-25T14:12:44.332Z,4.00
2019-02-25T14:15:14.476Z,4.03
2019-02-25T14:17:43.698Z,4.10
2019-02-25T14:20:14.436Z,4.60
2019-02-25T14:22:43.515Z,4.12
2019-02-25T14:25:13.802Z,4.37
2019-02-25T14:27:42.860Z,4.10
2019-02-25T14:30:15.877Z,4.33
2019-02-25T14:32:45.018Z,4.67
2019-02-25T14:35:15.536Z,4.40
2019-02-25T14:37:44.460Z,4.50
2019-02-25T14:40:16.642Z,4.62
2019-02-25T14:42:46.807Z,4.53
2019-02-25T14:45:19.588Z,4.72
2019-02-25T14:47:49.215Z,4.90
2019-02-25T14:50:18.482Z,4.30
2019-02-25T14:52:48.118Z,4.62
2019-02-25T14:55:17.507Z,4.60
2019-02-25T14:57:46.671Z,4.47
2019-02-25T15:00:22.012Z,4.70
2019-02-25T15:02:51.957Z,4.67
2019-02-25T15:05:21.817Z,4.17
2019-02-25T15:07:51.211Z,4.40
2019-02-25T15:10:26.755Z,4.50
2019-02-25T15:12:56.437Z,4.30
2019-02-25T15:15:23.071Z,4.50
2019-02-25T15:17:52.739Z,4.47
2019-02-25T15:20:23.434Z,4.30
2019-02-25T15:22:53.299Z,4.50
2019-02-25T15:25:22.569Z,4.42
2019-02-25T15:27:51.734Z,4.60
2019-02-25T15:30:24.947Z,4.35
2019-02-25T15:32:57.038Z,3.92
2019-02-25T15:35:28.794Z,3.77
2019-02-25T15:37:57.672Z,3.75
2019-02-25T15:40:27.291Z,3.85
2019-02-25T15:43:10.440Z,3.50
2019-02-25T15:45:41.946Z,3.35
2019-02-25T15:48:14.573Z,3.55
2019-02-25T15:50:46.132Z,3.70
2019-02-25T15:53:16.084Z,3.98
2019-02-25T15:55:45.523Z,3.98
2019-02-25T15:58:14.813Z,4.53
2019-02-25T16:00:44.961Z,3.80
2019-02-25T16:03:15.932Z,3.20
2019-02-25T16:05:44.925Z,4.03
2019-02-25T16:08:17.221Z,4.10
2019-02-25T16:10:46.962Z,4.23
2019-02-25T16:13:16.566Z,4.65
2019-02-25T16:15:45.659Z,4.42
2019-02-25T16:18:15.028Z,4.10
2019-02-25T16:20:46.271Z,4.10
2019-02-25T16:23:14.723Z,4.08
2019-02-25T16:25:45.580Z,4.05
2019-02-25T16:28:15.686Z,4.78
2019-02-25T16:30:46.931Z,4.05
2019-02-25T16:33:16.537Z,4.30
2019-02-25T16:35:46.168Z,4.10
2019-02-25T16:38:15.409Z,3.80
2019-02-25T16:40:44.390Z,4.90
2019-02-25T16:43:13.391Z,4.90
2019-02-25T16:45:45.317Z,4.30
2019-02-25T16:48:13.378Z,4.40
2019-02-25T16:50:46.128Z,4.42
2019-02-25T16:53:15.526Z,4.53
2019-02-25T16:55:47.013Z,5.10
2019-02-25T16:58:16.871Z,4.67
2019-02-25T17:00:45.955Z,4.97
2019-02-25T17:03:16.125Z,5.00
2019-02-25T17:05:47.806Z,5.40
2019-02-25T17:08:19.350Z,4.70
2019-02-25T17:10:49.562Z,5.05
2019-02-25T17:13:19.154Z,4.80
2019-02-25T17:15:51.289Z,5.78
2019-02-25T17:18:20.299Z,5.95
2019-02-25T17:20:50.318Z,5.97
2019-02-25T17:23:19.489Z,6.25
2019-02-25T17:25:48.565Z,6.20
2019-02-25T17:28:19.847Z,5.72
2019-02-25T17:30:49.665Z,6.25
2019-02-25T17:33:18.999Z,6.37
2019-02-25T17:35:49.839Z,6.80
2019-02-25T17:38:20.932Z,6.37
2019-02-25T17:40:50.169Z,5.90
2019-02-25T17:43:20.225Z,5.80
2019-02-25T17:45:49.528Z,6.10
2019-02-25T17:48:20.999Z,6.35
2019-02-25T17:50:49.502Z,6.20
2019-02-25T17:53:18.756Z,6.90
2019-02-25T17:55:51.212Z,5.87
2019-02-25T17:58:21.966Z,6.33
2019-02-25T18:00:56.573Z,6.22
2019-02-25T18:03:26.567Z,6.42
2019-02-25T18:05:56.910Z,7.30
2019-02-25T18:08:27.953Z,6.80
2019-02-25T18:10:57.408Z,7.12
2019-02-25T18:13:28.117Z,7.37
2019-02-25T18:15:57.632Z,8.23
2019-02-25T18:18:26.635Z,8.78
2019-02-25T18:20:55.584Z,8.50
2019-02-25T18:23:24.648Z,9.50
2019-02-25T18:25:57.987Z,8.80
2019-02-25T18:28:24.885Z,8.48
2019-02-25T18:30:54.311Z,8.38
2019-02-25T18:33:25.277Z,10.00
2019-02-25T18:35:54.515Z,11.30
2019-02-25T18:38:24.965Z,10.45
2019-02-25T18:40:54.608Z,12.60
2019-02-25T18:43:24.239Z,9.95
2019-02-25T18:45:56.134Z,10.20
2019-02-25T18:48:27.357Z,10.65
2019-02-25T18:50:58.913Z,9.98
2019-02-25T18:53:28.301Z,12.40
2019-02-25T18:55:57.388Z,14.60
2019-02-25T18:58:26.523Z,13.78
2019-02-25T19:00:57.163Z,13.10
2019-02-25T19:03:26.938Z,12.05
2019-02-25T19:05:57.441Z,12.00
2019-02-25T19:08:28.944Z,12.47
2019-02-25T19:10:58.254Z,13.50
2019-02-25T19:13:29.393Z,12.25
2019-02-25T19:15:59.295Z,12.37
2019-02-25T19:18:29.438Z,11.12
2019-02-25T19:21:00.278Z,11.83
2019-02-25T19:23:31.262Z,11.60
2019-02-25T19:26:00.779Z,11.00
2019-02-25T19:28:30.325Z,11.22
2019-02-25T19:30:59.492Z,11.43
2019-02-25T19:33:28.574Z,11.12
2019-02-25T19:35:58.800Z,11.08
2019-02-25T19:38:32.067Z,11.48
2019-02-25T19:40:58.994Z,11.40
2019-02-25T19:43:28.177Z,10.90
2019-02-25T19:45:58.990Z,10.70
2019-02-25T19:48:30.801Z,11.38
2019-02-25T19:50:59.606Z,10.98
2019-02-25T19:53:31.711Z,12.20
2019-02-25T19:56:00.776Z,11.00
2019-02-25T19:58:32.994Z,11.85
2019-02-25T20:01:01.668Z,11.68
2019-02-25T20:03:33.044Z,11.80
2019-02-25T20:06:02.230Z,11.00
2019-02-25T20:08:31.456Z,10.93
2019-02-25T20:11:00.543Z,10.80
2019-02-25T20:13:29.615Z,11.40
2019-02-25T20:16:07.316Z,11.65
2019-02-25T20:18:31.047Z,15.08
2019-02-25T20:21:03.919Z,13.50
2019-02-25T20:23:31.127Z,14.07
2019-02-25T20:26:00.154Z,15.10
2019-02-25T20:28:29.044Z,14.25
2019-02-25T20:30:58.333Z,12.45
2019-02-25T20:33:31.806Z,12.80
2019-02-25T20:35:58.938Z,11.73
2019-02-25T20:38:29.630Z,12.35
2019-02-25T20:41:02.255Z,12.58
2019-02-25T20:43:32.372Z,12.73
2019-02-25T20:46:04.050Z,13.70
2019-02-25T20:48:32.242Z,15.00
2019-02-25T20:51:02.141Z,14.05
2019-02-25T20:53:33.934Z,14.18
2019-02-25T20:56:03.146Z,13.78
2019-02-25T20:58:32.215Z,13.98
2019-02-25T21:01:01.235Z,13.83
2019-02-25T21:03:30.755Z,13.13
2019-02-25T21:06:01.062Z,14.10
2019-02-25T21:08:30.829Z,13.90
2019-02-25T21:11:01.809Z,14.28
2019-02-25T21:13:33.130Z,14.85
2019-02-25T21:16:02.717Z,14.73
2019-02-25T21:18:32.660Z,16.70
2019-02-25T21:21:01.525Z,13.85
2019-02-25T21:23:30.486Z,15.58
2019-02-25T21:25:59.915Z,15.60
2019-02-25T21:28:31.400Z,17.20
2019-02-25T21:31:00.804Z,16.70
2019-02-25T21:33:30.423Z,16.17
2019-02-25T21:35:59.727Z,15.68
2019-02-25T21:38:30.247Z,16.05
2019-02-25T21:40:59.492Z,16.02
2019-02-25T21:43:29.090Z,15.90
2019-02-25T21:45:59.336Z,16.15
2019-02-25T21:48:31.808Z,16.50
2019-02-25T21:51:02.221Z,15.10
2019-02-25T21:53:30.592Z,14.03
2019-02-25T21:56:04.206Z,14.87
2019-02-25T21:58:30.505Z,15.43
2019-02-25T22:00:59.532Z,14.85
2019-02-25T22:03:28.460Z,14.95
2019-02-25T22:05:58.763Z,14.95
2019-02-25T22:08:29.104Z,15.67
2019-02-25T22:11:11.745Z,15.55
2019-02-25T22:13:29.436Z,16.20
2019-02-25T22:15:59.123Z,17.45
2019-02-25T22:18:31.859Z,17.35
2019-02-25T22:21:00.866Z,17.20
2019-02-25T22:23:30.646Z,16.32
2019-02-25T22:26:00.521Z,17.73
2019-02-25T22:28:30.594Z,16.93
2019-02-25T22:31:00.037Z,17.05
2019-02-25T22:33:30.425Z,17.73
2019-02-25T22:35:59.616Z,16.87
2019-02-25T22:38:28.955Z,17.10
2019-02-25T22:40:59.841Z,17.52
2019-02-25T22:43:28.437Z,17.27
2019-02-25T22:45:58.433Z,17.92
2019-02-25T22:48:28.944Z,18.27
2019-02-25T22:51:00.043Z,18.40
2019-02-25T22:53:28.865Z,18.42
2019-02-25T22:55:58.133Z,18.73
2019-02-25T22:58:28.012Z,18.55
2019-02-25T23:01:06.143Z,20.60
2019-02-25T23:03:35.932Z,20.75
2019-02-25T23:06:04.941Z,20.45
2019-02-25T23:08:34.306Z,21.42
2019-02-25T23:11:03.220Z,20.77
2019-02-25T23:13:32.101Z,21.50
2019-02-25T23:16:01.118Z,22.17
2019-02-25T23:18:30.065Z,22.40
2019-02-25T23:21:01.248Z,24.90
2019-02-25T23:23:30.658Z,25.82
2019-02-25T23:26:00.720Z,29.02
2019-02-25T23:28:30.573Z,31.02
2019-02-25T23:30:59.711Z,26.37
2019-02-25T23:33:28.569Z,25.15
2019-02-25T23:35:57.671Z,25.77
2019-02-25T23:38:26.627Z,25.30
2019-02-25T23:40:55.840Z,25.35
2019-02-25T23:43:24.793Z,25.68
2019-02-25T23:45:53.820Z,25.32
2019-02-25T23:48:26.451Z,26.15
2019-02-25T23:50:55.426Z,26.77
2019-02-25T23:53:26.096Z,25.32
2019-02-25T23:55:56.428Z,26.68
2019-02-25T23:58:25.871Z,27.15
